createdAt,value
2023-03-12T00:00:11.935Z,-0.10
2023-03-12T00:02:38.446Z,-0.20
2023-03-12T00:05:05.295Z,-0.20
2023-03-12T00:07:31.923Z,-0.20
2023-03-12T00:09:58.672Z,-0.20
2023-03-12T00:12:28.616Z,-0.20
2023-03-12T00:14:55.347Z,-0.10
2023-03-12T00:17:22.145Z,-0.10
2023-03-12T00:19:54.359Z,-0.10
2023-03-12T00:22:23.090Z,-0.10
2023-03-12T00:24:58.023Z,-0.10
2023-03-12T00:27:26.273Z,-0.10
2023-03-12T00:29:53.516Z,-0.10
2023-03-12T00:32:20.642Z,-0.10
2023-03-12T00:34:54.630Z,-0.10
2023-03-12T00:37:22.023Z,0.00
2023-03-12T00:39:48.597Z,0.10
2023-03-12T00:42:15.147Z,0.10
2023-03-12T00:44:42.227Z,0.30
2023-03-12T00:47:08.852Z,0.40
2023-03-12T00:49:35.350Z,0.40
2023-03-12T00:52:02.365Z,0.50
2023-03-12T00:54:28.976Z,0.50
2023-03-12T00:56:55.514Z,0.50
2023-03-12T00:59:21.997Z,0.50
2023-03-12T01:01:50.018Z,0.50
2023-03-12T01:04:18.116Z,0.50
2023-03-12T01:06:44.979Z,0.50
2023-03-12T01:09:11.758Z,0.50
2023-03-12T01:11:38.837Z,0.40
2023-03-12T01:14:08.612Z,0.60
2023-03-12T01:16:35.479Z,0.50
2023-03-12T01:19:03.598Z,0.50
2023-03-12T01:21:30.510Z,0.50
2023-03-12T01:23:58.173Z,0.50
2023-03-12T01:26:25.206Z,0.60
2023-03-12T01:28:51.814Z,0.60
2023-03-12T01:31:19.447Z,0.60
2023-03-12T01:33:52.712Z,0.70
2023-03-12T01:36:22.787Z,0.70
2023-03-12T01:38:54.376Z,0.80
2023-03-12T01:41:21.932Z,0.80
2023-03-12T01:43:48.507Z,0.80
2023-03-12T01:46:36.819Z,0.80
2023-03-12T01:49:16.060Z,0.90
2023-03-12T01:51:46.436Z,0.90
2023-03-12T01:54:18.611Z,0.90
2023-03-12T01:56:45.983Z,1.00
2023-03-12T01:59:27.619Z,1.00
2023-03-12T02:01:54.738Z,1.00
2023-03-12T02:04:24.322Z,1.00
2023-03-12T02:07:11.782Z,1.00
2023-03-12T02:09:45.483Z,1.00
2023-03-12T02:12:12.511Z,1.00
2023-03-12T02:14:39.441Z,0.90
2023-03-12T02:17:06.756Z,0.80
2023-03-12T02:20:01.087Z,0.60
2023-03-12T02:22:28.879Z,0.60
2023-03-12T02:25:28.765Z,0.50
2023-03-12T02:27:58.538Z,0.40
2023-03-12T02:30:27.135Z,0.30
2023-03-12T02:32:54.861Z,0.20
2023-03-12T02:35:21.440Z,0.20
2023-03-12T02:37:50.145Z,0.10
2023-03-12T02:40:27.910Z,0.10
2023-03-12T02:42:55.655Z,0.00
2023-03-12T02:45:22.949Z,0.00
2023-03-12T02:47:51.185Z,0.00
2023-03-12T02:50:18.914Z,-0.10
2023-03-12T02:52:45.494Z,-0.10
2023-03-12T02:55:12.110Z,-0.20
2023-03-12T02:57:38.871Z,-0.20
2023-03-12T03:00:07.951Z,-0.30
2023-03-12T03:02:34.424Z,-0.30
2023-03-12T03:05:00.901Z,-0.30
2023-03-12T03:07:27.431Z,-0.30
2023-03-12T03:09:54.229Z,-0.40
2023-03-12T03:12:21.083Z,-0.40
2023-03-12T03:14:47.720Z,-0.40
2023-03-12T03:17:16.166Z,-0.50
2023-03-12T03:19:42.928Z,-0.50
2023-03-12T03:22:09.658Z,-0.50
2023-03-12T03:24:36.546Z,-0.60
2023-03-12T03:27:03.575Z,-0.60
2023-03-12T03:29:30.154Z,-0.60
2023-03-12T03:31:56.905Z,-0.70
2023-03-12T03:34:23.430Z,-0.70
2023-03-12T03:36:50.224Z,-0.70
2023-03-12T03:39:16.970Z,-0.70
2023-03-12T03:41:44.104Z,-0.80
2023-03-12T03:44:10.703Z,-0.80
2023-03-12T03:46:37.423Z,-0.90
2023-03-12T03:49:04.208Z,-0.80
2023-03-12T03:51:30.848Z,-0.90
2023-03-12T03:54:00.348Z,-0.90
2023-03-12T03:56:27.001Z,-1.00
2023-03-12T03:58:53.681Z,-1.00
2023-03-12T04:01:21.338Z,-1.00
2023-03-12T04:03:48.895Z,-1.00
2023-03-12T04:06:15.469Z,-1.10
2023-03-12T04:08:42.251Z,-1.10
2023-03-12T04:11:17.652Z,-1.20
2023-03-12T04:13:46.478Z,-1.20
2023-03-12T04:16:16.306Z,-1.30
2023-03-12T04:18:42.799Z,-1.20
2023-03-12T04:21:11.436Z,-1.30
2023-03-12T04:23:39.226Z,-1.30
2023-03-12T04:26:06.768Z,-1.40
2023-03-12T04:28:34.042Z,-1.40
2023-03-12T04:31:02.812Z,-1.40
2023-03-12T04:33:38.262Z,-1.40
2023-03-12T04:36:05.390Z,-1.40
2023-03-12T04:38:34.480Z,-1.40
2023-03-12T04:41:12.288Z,-1.40
2023-03-12T04:43:40.607Z,-1.40
2023-03-12T04:46:08.640Z,-1.40
2023-03-12T04:48:35.886Z,-1.50
2023-03-12T04:51:04.185Z,-1.50
2023-03-12T04:53:30.875Z,-1.40
2023-03-12T04:55:57.459Z,-1.50
2023-03-12T04:58:24.022Z,-1.50
2023-03-12T05:00:51.089Z,-1.50
2023-03-12T05:03:18.175Z,-1.60
2023-03-12T05:05:49.102Z,-1.60
2023-03-12T05:08:15.895Z,-1.60
2023-03-12T05:10:45.690Z,-1.70
2023-03-12T05:13:20.674Z,-1.70
2023-03-12T05:15:51.074Z,-1.70
2023-03-12T05:18:19.661Z,-1.80
2023-03-12T05:20:57.302Z,-1.80
2023-03-12T05:23:24.036Z,-1.80
2023-03-12T05:25:50.602Z,-1.80
2023-03-12T05:28:17.703Z,-1.90
2023-03-12T05:30:44.218Z,-1.90
2023-03-12T05:33:10.761Z,-1.90
2023-03-12T05:35:37.454Z,-1.90
2023-03-12T05:38:04.184Z,-2.00
2023-03-12T05:40:31.218Z,-2.00
2023-03-12T05:42:58.782Z,-2.00
2023-03-12T05:45:25.336Z,-2.00
2023-03-12T05:47:52.953Z,-2.10
2023-03-12T05:50:19.494Z,-2.20
2023-03-12T05:52:46.341Z,-2.20
2023-03-12T05:55:12.950Z,-2.10
2023-03-12T05:57:39.539Z,-2.10
2023-03-12T06:00:07.205Z,-2.00
2023-03-12T06:02:33.775Z,-1.90
2023-03-12T06:05:02.620Z,-1.90
2023-03-12T06:07:31.239Z,-1.90
2023-03-12T06:10:01.909Z,-1.90
2023-03-12T06:12:31.914Z,-1.70
2023-03-12T06:14:59.787Z,-1.70
2023-03-12T06:17:30.725Z,-1.70
2023-03-12T06:19:57.229Z,-1.70
2023-03-12T06:22:24.318Z,-2.10
2023-03-12T06:24:51.074Z,-1.80
2023-03-12T06:27:17.959Z,-2.10
2023-03-12T06:29:46.493Z,-0.80
2023-03-12T06:32:15.214Z,0.30
2023-03-12T06:34:43.307Z,1.00
2023-03-12T06:37:10.522Z,0.90
2023-03-12T06:39:37.362Z,1.20
2023-03-12T06:42:04.518Z,-0.10
2023-03-12T06:44:31.891Z,1.60
2023-03-12T06:46:58.450Z,2.20
2023-03-12T06:49:25.227Z,1.50
2023-03-12T06:51:51.878Z,0.90
2023-03-12T06:54:18.378Z,-0.60
2023-03-12T06:56:46.226Z,0.60
2023-03-12T06:59:16.527Z,3.60
2023-03-12T07:01:43.312Z,3.40
2023-03-12T07:04:10.048Z,3.70
2023-03-12T07:06:36.618Z,4.10
2023-03-12T07:09:03.760Z,4.90
2023-03-12T07:11:30.758Z,6.30
2023-03-12T07:13:57.606Z,5.30
2023-03-12T07:16:27.949Z,6.70
2023-03-12T07:18:54.652Z,7.00
2023-03-12T07:21:23.687Z,6.80
2023-03-12T07:23:50.890Z,8.00
2023-03-12T07:26:19.615Z,8.40
2023-03-12T07:28:46.506Z,8.30
2023-03-12T07:31:13.046Z,7.40
2023-03-12T07:33:39.588Z,7.90
2023-03-12T07:36:06.587Z,8.00
2023-03-12T07:38:34.513Z,10.80
2023-03-12T07:41:01.537Z,12.90
2023-03-12T07:43:28.139Z,12.30
2023-03-12T07:45:55.165Z,14.70
2023-03-12T07:48:21.801Z,15.50
2023-03-12T07:50:48.737Z,16.90
2023-03-12T07:53:18.891Z,16.10
2023-03-12T07:55:50.316Z,14.80
2023-03-12T07:58:17.378Z,15.10
2023-03-12T08:00:44.725Z,15.60
2023-03-12T08:03:14.951Z,19.00
2023-03-12T08:05:43.191Z,20.10
2023-03-12T08:08:10.349Z,17.60
2023-03-12T08:10:37.141Z,16.20
2023-03-12T08:13:03.807Z,17.60
2023-03-12T08:15:30.368Z,20.80
2023-03-12T08:17:56.892Z,20.90
2023-03-12T08:20:23.431Z,21.30
2023-03-12T08:22:49.935Z,20.50
2023-03-12T08:25:18.820Z,20.10
2023-03-12T08:27:45.477Z,19.10
2023-03-12T08:30:12.656Z,17.90
2023-03-12T08:32:39.801Z,20.90
2023-03-12T08:35:06.546Z,19.70
2023-03-12T08:37:33.253Z,21.30
2023-03-12T08:40:00.300Z,21.20
2023-03-12T08:42:27.076Z,19.30
2023-03-12T08:44:54.820Z,16.80
2023-03-12T08:47:21.402Z,15.00
2023-03-12T08:49:48.006Z,15.70
2023-03-12T08:52:14.532Z,15.30
2023-03-12T08:54:41.588Z,15.00
2023-03-12T08:57:08.146Z,14.30
2023-03-12T08:59:34.906Z,13.70
2023-03-12T09:02:01.502Z,12.90
2023-03-12T09:04:31.127Z,11.80
2023-03-12T09:07:00.735Z,11.20
2023-03-12T09:09:27.453Z,9.00
2023-03-12T09:11:54.685Z,10.10
2023-03-12T09:17:08.005Z,8.70
2023-03-12T09:19:34.559Z,9.50
2023-03-12T09:22:01.100Z,9.20
2023-03-12T09:24:29.199Z,8.90
2023-03-12T09:26:58.377Z,10.00
2023-03-12T09:29:25.059Z,10.50
2023-03-12T09:31:52.074Z,10.70
2023-03-12T09:34:20.044Z,12.50
2023-03-12T09:36:47.647Z,13.10
2023-03-12T09:39:14.334Z,14.20
2023-03-12T09:41:44.748Z,14.80
2023-03-12T09:44:23.612Z,16.20
2023-03-12T09:47:01.829Z,19.00
2023-03-12T09:49:34.480Z,19.20
2023-03-12T09:52:13.629Z,20.30
2023-03-12T09:54:58.988Z,19.30
2023-03-12T09:57:27.675Z,20.20
2023-03-12T09:59:54.335Z,18.00
2023-03-12T10:02:38.978Z,14.60
2023-03-12T10:05:07.139Z,15.30
2023-03-12T10:07:48.825Z,14.50
2023-03-12T10:10:32.663Z,15.70
2023-03-12T10:13:17.949Z,13.40
2023-03-12T10:16:03.160Z,12.80
2023-03-12T10:18:48.771Z,14.60
2023-03-12T10:21:34.584Z,13.40
2023-03-12T10:24:08.244Z,13.10
2023-03-12T10:26:40.834Z,13.00
2023-03-12T10:29:16.771Z,13.30
2023-03-12T10:31:58.775Z,14.50
2023-03-12T10:34:32.658Z,15.50
2023-03-12T10:37:05.187Z,15.40
2023-03-12T10:39:32.240Z,15.50
2023-03-12T10:42:00.828Z,16.10
2023-03-12T10:44:27.728Z,14.20
2023-03-12T10:47:26.301Z,13.50
2023-03-12T10:49:54.250Z,16.10
2023-03-12T10:52:24.237Z,15.20
2023-03-12T10:54:52.939Z,14.90
2023-03-12T10:57:21.798Z,13.30
2023-03-12T10:59:49.885Z,12.70
2023-03-12T11:02:39.897Z,12.30
2023-03-12T11:05:29.593Z,12.70
2023-03-12T11:07:57.486Z,12.50
2023-03-12T11:35:57.040Z,12.10
2023-03-12T11:38:33.617Z,12.60
2023-03-12T11:41:44.717Z,12.40
2023-03-12T11:44:34.428Z,11.20
2023-03-12T11:47:19.276Z,11.70
2023-03-12T11:50:11.923Z,11.40
2023-03-12T11:52:57.212Z,10.80
2023-03-12T11:55:23.794Z,11.00
2023-03-12T11:58:13.162Z,10.90
2023-03-12T12:00:49.219Z,10.50
2023-03-12T12:03:34.970Z,11.70
2023-03-12T12:06:27.538Z,10.90
2023-03-12T12:09:21.481Z,11.40
2023-03-12T12:12:37.208Z,10.10
2023-03-12T12:15:25.404Z,10.40
2023-03-12T12:18:09.072Z,11.00
2023-03-12T12:20:42.976Z,11.00
2023-03-12T12:23:27.473Z,10.40
2023-03-12T12:26:06.521Z,10.70
2023-03-12T12:28:41.780Z,10.10
2023-03-12T12:31:24.621Z,9.80
2023-03-12T12:34:21.393Z,9.90
2023-03-12T12:37:12.620Z,9.30
2023-03-12T12:39:47.048Z,9.90
2023-03-12T12:42:20.900Z,9.60
2023-03-12T12:44:51.103Z,9.30
2023-03-12T12:47:26.779Z,9.30
2023-03-12T12:49:57.758Z,9.50
2023-03-12T12:52:25.037Z,9.70
2023-03-12T12:55:15.641Z,9.40
2023-03-12T12:58:02.232Z,9.30
2023-03-12T13:00:40.484Z,9.30
2023-03-12T13:03:12.226Z,9.70
2023-03-12T13:05:53.499Z,10.00
2023-03-12T13:08:39.068Z,9.20
2023-03-12T13:11:23.493Z,9.10
2023-03-12T13:14:05.108Z,8.80
2023-03-12T13:16:33.433Z,8.70
2023-03-12T13:19:20.889Z,8.70
2023-03-12T13:22:07.687Z,9.00
2023-03-12T13:24:59.655Z,9.10
2023-03-12T13:27:32.173Z,9.00
2023-03-12T13:29:59.264Z,9.20
2023-03-12T13:32:34.876Z,9.30
2023-03-12T13:35:27.336Z,9.00
2023-03-12T13:37:53.810Z,8.80
2023-03-12T13:40:32.742Z,9.10
2023-03-12T13:43:13.752Z,8.10
2023-03-12T13:45:55.551Z,8.30
2023-03-12T13:48:23.853Z,8.00
2023-03-12T13:51:11.226Z,8.20
2023-03-12T13:53:40.738Z,8.00
2023-03-12T13:56:11.627Z,7.80
2023-03-12T13:58:54.364Z,8.00
2023-03-12T14:01:24.177Z,8.00
2023-03-12T14:03:56.407Z,7.90
2023-03-12T14:06:25.914Z,8.20
2023-03-12T14:09:14.602Z,7.90
2023-03-12T14:12:27.117Z,8.00
2023-03-12T14:15:05.021Z,7.70
2023-03-12T14:17:34.217Z,7.60
2023-03-12T14:20:19.049Z,7.70
2023-03-12T14:22:55.010Z,7.30
2023-03-12T14:25:39.034Z,6.90
2023-03-12T14:28:13.579Z,7.00
2023-03-12T14:30:40.663Z,7.00
2023-03-12T14:33:12.572Z,7.20
2023-03-12T14:35:44.462Z,7.00
2023-03-12T14:38:30.533Z,7.00
2023-03-12T14:41:15.858Z,7.30
2023-03-12T14:43:43.835Z,7.30
2023-03-12T14:46:16.741Z,7.30
2023-03-12T14:48:43.595Z,7.10
2023-03-12T14:51:25.632Z,7.10
2023-03-12T14:53:53.276Z,7.00
2023-03-12T14:56:25.674Z,6.80
2023-03-12T14:58:52.464Z,6.70
2023-03-12T15:01:23.404Z,6.50
2023-03-12T15:03:57.010Z,6.60
2023-03-12T15:06:37.975Z,7.00
2023-03-12T15:09:07.108Z,6.70
2023-03-12T15:11:36.189Z,6.50
2023-03-12T15:14:08.166Z,6.50
2023-03-12T15:16:36.033Z,6.50
2023-03-12T15:19:03.893Z,6.40
2023-03-12T15:21:34.617Z,6.30
2023-03-12T15:24:02.535Z,6.20
2023-03-12T15:26:33.144Z,6.20
2023-03-12T15:29:01.598Z,6.10
2023-03-12T15:31:40.113Z,6.20
2023-03-12T15:34:06.792Z,5.80
2023-03-12T15:36:34.713Z,5.80
2023-03-12T15:39:19.586Z,5.80
2023-03-12T15:41:50.455Z,5.70
2023-03-12T15:44:26.155Z,5.70
2023-03-12T15:46:55.623Z,5.60
2023-03-12T15:49:29.817Z,5.60
2023-03-12T15:52:18.232Z,5.80
2023-03-12T15:55:12.562Z,6.00
2023-03-12T15:57:50.204Z,5.80
2023-03-12T16:00:37.419Z,5.60
2023-03-12T16:03:06.131Z,5.30
2023-03-12T16:05:36.117Z,5.10
2023-03-12T16:08:10.799Z,5.10
2023-03-12T16:10:38.842Z,5.10
2023-03-12T16:13:05.756Z,5.20
2023-03-12T16:15:36.243Z,5.10
2023-03-12T16:18:03.156Z,5.10
2023-03-12T16:20:29.833Z,5.10
2023-03-12T16:22:56.640Z,5.00
2023-03-12T16:25:24.060Z,5.00
2023-03-12T16:27:54.995Z,4.90
2023-03-12T16:30:27.929Z,4.90
2023-03-12T16:32:54.861Z,4.80
2023-03-12T16:35:22.073Z,4.90
2023-03-12T16:37:48.723Z,4.90
2023-03-12T16:40:30.905Z,4.90
2023-03-12T16:43:03.691Z,4.80
2023-03-12T16:45:33.386Z,4.70
2023-03-12T16:48:02.682Z,4.60
2023-03-12T16:50:29.939Z,4.40
2023-03-12T16:52:56.814Z,4.40
2023-03-12T16:55:27.412Z,4.40
2023-03-12T16:57:57.896Z,4.30
2023-03-12T17:00:27.889Z,4.20
2023-03-12T17:02:57.847Z,4.30
2023-03-12T17:05:29.617Z,4.30
2023-03-12T17:07:56.374Z,4.30
2023-03-12T17:10:24.949Z,4.30
2023-03-12T17:12:53.259Z,4.40
2023-03-12T17:15:22.296Z,4.50
2023-03-12T17:17:49.772Z,4.50
2023-03-12T17:20:23.286Z,4.50
2023-03-12T17:22:50.282Z,4.50
2023-03-12T17:25:26.889Z,4.30
2023-03-12T17:27:54.015Z,4.30
2023-03-12T17:30:22.048Z,4.40
2023-03-12T17:32:49.662Z,4.30
2023-03-12T17:35:16.694Z,4.30
2023-03-12T17:37:43.883Z,4.50
2023-03-12T17:40:11.145Z,4.40
2023-03-12T17:42:38.678Z,4.40
2023-03-12T17:45:07.887Z,4.40
2023-03-12T17:47:37.825Z,4.30
2023-03-12T17:50:06.565Z,4.20
2023-03-12T17:52:33.494Z,4.30
2023-03-12T17:55:00.664Z,4.20
2023-03-12T17:57:27.516Z,4.20
2023-03-12T17:59:54.058Z,4.00
2023-03-12T18:02:21.330Z,4.10
2023-03-12T18:04:47.919Z,4.10
2023-03-12T18:07:14.706Z,4.20
2023-03-12T18:09:41.307Z,4.20
2023-03-12T18:12:08.114Z,4.20
2023-03-12T18:14:34.665Z,4.20
2023-03-12T18:17:01.256Z,4.10
2023-03-12T18:19:29.410Z,4.00
2023-03-12T18:21:56.309Z,3.90
2023-03-12T18:24:22.859Z,3.80
2023-03-12T18:26:51.535Z,3.90
2023-03-12T18:29:18.269Z,3.80
2023-03-12T18:31:44.899Z,3.80
2023-03-12T18:34:11.468Z,3.60
2023-03-12T18:36:37.956Z,3.70
2023-03-12T18:39:06.210Z,3.70
2023-03-12T18:41:33.034Z,3.60
2023-03-12T18:44:00.236Z,3.60
2023-03-12T18:46:27.018Z,3.50
2023-03-12T18:48:53.681Z,3.50
2023-03-12T18:51:20.368Z,3.60
2023-03-12T18:53:46.880Z,3.60
2023-03-12T18:56:14.648Z,3.60
2023-03-12T18:58:41.322Z,3.60
2023-03-12T19:01:07.898Z,3.60
2023-03-12T19:03:36.369Z,3.70
2023-03-12T19:06:08.538Z,3.70
2023-03-12T19:08:37.155Z,3.60
2023-03-12T19:11:05.818Z,3.70
2023-03-12T19:13:32.314Z,3.70
2023-03-12T19:16:00.710Z,3.70
2023-03-12T19:18:28.406Z,3.80
2023-03-12T19:20:54.932Z,3.90
2023-03-12T19:23:21.922Z,3.70
2023-03-12T19:25:48.551Z,3.70
2023-03-12T19:28:15.092Z,3.70
2023-03-12T19:30:42.084Z,3.70
2023-03-12T19:33:10.387Z,3.90
2023-03-12T19:35:44.917Z,3.80
2023-03-12T19:38:11.755Z,3.80
2023-03-12T19:40:38.247Z,3.90
2023-03-12T19:43:04.750Z,3.90
2023-03-12T19:45:31.576Z,3.90
2023-03-12T19:47:58.424Z,4.00
2023-03-12T19:50:25.195Z,4.00
2023-03-12T19:52:51.745Z,4.00
2023-03-12T19:55:18.259Z,4.00
2023-03-12T19:57:45.296Z,4.10
2023-03-12T20:00:12.328Z,4.00
2023-03-12T20:02:39.374Z,4.10
2023-03-12T20:05:07.808Z,4.10
2023-03-12T20:07:35.316Z,4.20
2023-03-12T20:10:01.878Z,4.30
2023-03-12T20:12:28.719Z,4.30
2023-03-12T20:14:55.390Z,4.30
2023-03-12T20:17:22.165Z,4.30
2023-03-12T20:19:48.711Z,4.30
2023-03-12T20:22:15.396Z,4.30
2023-03-12T20:24:42.048Z,4.40
2023-03-12T20:27:09.057Z,4.40
2023-03-12T20:29:38.777Z,4.50
2023-03-12T20:32:06.512Z,4.50
2023-03-12T20:34:33.130Z,4.50
2023-03-12T20:36:59.774Z,4.60
2023-03-12T20:39:26.603Z,4.60
2023-03-12T20:41:53.154Z,4.60
2023-03-12T20:44:19.765Z,4.60
2023-03-12T20:46:47.219Z,4.70
2023-03-12T20:49:14.385Z,4.70
2023-03-12T20:51:42.755Z,4.80
2023-03-12T20:54:09.729Z,4.80
2023-03-12T20:56:43.608Z,5.00
2023-03-12T20:59:11.456Z,4.90
2023-03-12T21:01:38.428Z,4.90
2023-03-12T21:04:32.791Z,5.10
2023-03-12T21:07:02.224Z,5.00
2023-03-12T21:09:28.841Z,5.10
2023-03-12T21:11:57.521Z,5.20
2023-03-12T21:14:24.365Z,5.10
2023-03-12T21:16:51.111Z,5.10
2023-03-12T21:19:17.929Z,5.20
2023-03-12T21:21:44.694Z,5.20
2023-03-12T21:24:11.368Z,5.20
2023-03-12T21:26:38.025Z,5.20
2023-03-12T21:29:06.697Z,5.20
2023-03-12T21:31:33.898Z,5.20
2023-03-12T21:34:00.581Z,5.20
2023-03-12T21:36:27.563Z,5.30
2023-03-12T21:38:56.697Z,5.30
2023-03-12T21:41:23.775Z,5.30
2023-03-12T21:43:57.201Z,5.40
2023-03-12T21:46:35.274Z,5.50
2023-03-12T21:49:04.893Z,5.40
2023-03-12T21:51:39.623Z,5.50
2023-03-12T21:54:06.602Z,5.40
2023-03-12T21:56:33.140Z,5.50
2023-03-12T21:58:59.893Z,5.50
2023-03-12T22:01:26.986Z,5.50
2023-03-12T22:03:53.776Z,5.60
2023-03-12T22:06:20.652Z,5.60
2023-03-12T22:08:52.213Z,5.70
2023-03-12T22:11:19.008Z,5.60
2023-03-12T22:13:45.476Z,5.70
2023-03-12T22:16:13.345Z,5.70
2023-03-12T22:18:45.011Z,5.80
2023-03-12T22:21:16.122Z,5.80
2023-03-12T22:23:42.651Z,5.80
2023-03-12T22:26:09.369Z,5.80
2023-03-12T22:28:35.972Z,5.80
2023-03-12T22:31:05.273Z,5.80
2023-03-12T22:33:32.305Z,5.90
2023-03-12T22:35:58.845Z,5.80
2023-03-12T22:38:25.765Z,5.80
2023-03-12T22:40:54.975Z,5.80
2023-03-12T22:43:22.192Z,5.80
2023-03-12T22:45:53.259Z,5.80
2023-03-12T22:48:19.907Z,5.90
2023-03-12T22:50:53.716Z,5.90
2023-03-12T22:53:20.360Z,5.80
2023-03-12T22:55:46.839Z,5.90
2023-03-12T22:58:14.231Z,5.90
2023-03-12T23:00:40.675Z,5.80
2023-03-12T23:03:07.207Z,5.90
2023-03-12T23:05:35.838Z,5.90
2023-03-12T23:08:02.347Z,5.90
2023-03-12T23:10:28.830Z,6.00
2023-03-12T23:12:55.332Z,6.00
2023-03-12T23:15:24.520Z,6.10
2023-03-12T23:17:55.531Z,6.10
2023-03-12T23:20:23.763Z,6.00
2023-03-12T23:22:50.397Z,6.00
2023-03-12T23:25:16.904Z,6.00
2023-03-12T23:27:43.443Z,5.90
2023-03-12T23:30:10.730Z,6.00
2023-03-12T23:32:37.296Z,6.00
2023-03-12T23:35:03.939Z,5.80
2023-03-12T23:37:30.494Z,5.90
2023-03-12T23:39:56.995Z,5.90
2023-03-12T23:42:24.166Z,5.90
2023-03-12T23:44:50.708Z,5.90
2023-03-12T23:47:17.239Z,5.90
2023-03-12T23:49:43.671Z,5.80
2023-03-12T23:52:10.187Z,5.80
2023-03-12T23:54:36.655Z,5.90
2023-03-12T23:57:03.363Z,5.80
2023-03-12T23:59:29.800Z,5.90
